sensor_id;sensor_type;location;lat;lon;timestamp;pressure;altitude;pressure_sealevel;temperature;humidity
76746;BME280;65671;49.976;20.038;2024-01-15T00:00:42;96104.22;;;1.02;100.00
76746;BME280;65671;49.976;20.038;2024-01-15T00:03:07;96106.13;;;1.02;100.00
76746;BME280;65671;49.976;20.038;2024-01-15T00:05:33;96098.16;;;1.16;99.49
76746;BME280;65671;49.976;20.038;2024-01-15T00:07:58;96090.53;;;1.11;100.00
76746;BME280;65671;49.976;20.038;2024-01-15T00:10:24;96086.31;;;1.06;100.00
76746;BME280;65671;49.976;20.038;2024-01-15T00:12:49;96075.28;;;1.04;100.00
76746;BME280;65671;49.976;20.038;2024-01-15T00:15:15;96071.47;;;1.02;100.00
76746;BME280;65671;49.976;20.038;2024-01-15T00:17:40;96076.81;;;1.05;100.00
76746;BME280;65671;49.976;20.038;2024-01-15T00:20:06;96070.34;;;1.10;99.44
76746;BME280;65671;49.976;20.038;2024-01-15T00:22:32;96065.44;;;1.12;99.22
76746;BME280;65671;49.976;20.038;2024-01-15T00:24:58;96058.56;;;1.11;98.65
76746;BME280;65671;49.976;20.038;2024-01-15T00:27:23;96057.00;;;1.06;99.52
76746;BME280;65671;49.976;20.038;2024-01-15T00:29:49;96052.84;;;1.09;98.42
76746;BME280;65671;49.976;20.038;2024-01-15T00:32:16;96046.75;;;1.08;98.23
76746;BME280;65671;49.976;20.038;2024-01-15T00:34:42;96042.53;;;1.04;99.19
76746;BME280;65671;49.976;20.038;2024-01-15T00:37:07;96046.75;;;1.08;98.50
76746;BME280;65671;49.976;20.038;2024-01-15T00:39:33;96044.09;;;1.12;97.27
76746;BME280;65671;49.976;20.038;2024-01-15T00:41:58;96041.03;;;1.10;98.37
76746;BME280;65671;49.976;20.038;2024-01-15T00:44:24;96040.28;;;1.17;96.84
76746;BME280;65671;49.976;20.038;2024-01-15T00:46:49;96042.59;;;1.18;98.00
76746;BME280;65671;49.976;20.038;2024-01-15T00:49:15;96036.88;;;1.16;97.73
76746;BME280;65671;49.976;20.038;2024-01-15T00:51:40;96030.03;;;1.22;95.29
76746;BME280;65671;49.976;20.038;2024-01-15T00:54:07;96036.13;;;1.23;95.89
76746;BME280;65671;49.976;20.038;2024-01-15T00:56:32;96024.69;;;1.19;95.00
76746;BME280;65671;49.976;20.038;2024-01-15T00:58:58;96023.91;;;1.22;96.95
76746;BME280;65671;49.976;20.038;2024-01-15T01:01:23;96028.13;;;1.26;95.47
76746;BME280;65671;49.976;20.038;2024-01-15T01:03:49;96023.56;;;1.27;95.51
76746;BME280;65671;49.976;20.038;2024-01-15T01:06:14;96025.47;;;1.33;93.08
76746;BME280;65671;49.976;20.038;2024-01-15T01:08:40;96022.41;;;1.21;94.48
76746;BME280;65671;49.976;20.038;2024-01-15T01:11:05;96017.09;;;1.31;92.38
76746;BME280;65671;49.976;20.038;2024-01-15T01:13:32;96020.53;;;1.39;93.36
76746;BME280;65671;49.976;20.038;2024-01-15T01:15:57;96017.47;;;1.37;93.70
76746;BME280;65671;49.976;20.038;2024-01-15T01:18:23;96017.47;;;1.37;93.28
76746;BME280;65671;49.976;20.038;2024-01-15T01:20:48;96015.56;;;1.37;91.87
76746;BME280;65671;49.976;20.038;2024-01-15T01:23:14;96015.19;;;1.46;90.95
76746;BME280;65671;49.976;20.038;2024-01-15T01:25:39;96017.47;;;1.33;92.91
76746;BME280;65671;49.976;20.038;2024-01-15T01:28:05;96015.19;;;1.35;94.15
76746;BME280;65671;49.976;20.038;2024-01-15T01:30:30;95999.19;;;1.42;92.54
76746;BME280;65671;49.976;20.038;2024-01-15T01:32:55;96000.34;;;1.34;92.65
76746;BME280;65671;49.976;20.038;2024-01-15T01:35:22;96001.47;;;1.37;92.77
76746;BME280;65671;49.976;20.038;2024-01-15T01:37:48;95996.91;;;1.34;94.00
76746;BME280;65671;49.976;20.038;2024-01-15T01:40:13;96003.00;;;1.24;94.57
76746;BME280;65671;49.976;20.038;2024-01-15T01:42:39;95990.03;;;1.19;93.42
76746;BME280;65671;49.976;20.038;2024-01-15T01:45:04;95983.56;;;1.30;93.58
76746;BME280;65671;49.976;20.038;2024-01-15T01:47:30;95979.38;;;1.22;93.80
76746;BME280;65671;49.976;20.038;2024-01-15T01:49:56;95967.94;;;1.11;95.31
76746;BME280;65671;49.976;20.038;2024-01-15T01:52:21;95962.22;;;1.16;93.51
76746;BME280;65671;49.976;20.038;2024-01-15T01:54:47;95959.56;;;1.16;96.30
76746;BME280;65671;49.976;20.038;2024-01-15T01:57:13;95960.72;;;1.11;94.39
76746;BME280;65671;49.976;20.038;2024-01-15T01:59:40;95961.47;;;1.16;94.91
76746;BME280;65671;49.976;20.038;2024-01-15T02:02:06;95955.00;;;1.20;94.90
76746;BME280;65671;49.976;20.038;2024-01-15T02:04:32;95947.41;;;1.15;95.98
76746;BME280;65671;49.976;20.038;2024-01-15T02:06:59;95953.09;;;1.10;95.35
76746;BME280;65671;49.976;20.038;2024-01-15T02:09:25;95942.41;;;1.06;95.89
76746;BME280;65671;49.976;20.038;2024-01-15T02:11:50;95942.44;;;1.10;95.42
76746;BME280;65671;49.976;20.038;2024-01-15T02:14:16;95939.75;;;1.10;95.85
76746;BME280;65671;49.976;20.038;2024-01-15T02:16:43;95943.19;;;1.03;95.83
76746;BME280;65671;49.976;20.038;2024-01-15T02:19:15;95937.50;;;1.12;94.58
76746;BME280;65671;49.976;20.038;2024-01-15T02:21:41;95934.06;;;1.04;97.22
76746;BME280;65671;49.976;20.038;2024-01-15T02:24:07;95932.13;;;0.98;96.57
76746;BME280;65671;49.976;20.038;2024-01-15T02:26:32;95930.25;;;1.05;95.60
76746;BME280;65671;49.976;20.038;2024-01-15T02:29:01;95929.88;;;1.07;96.24
76746;BME280;65671;49.976;20.038;2024-01-15T02:31:27;95926.06;;;1.01;96.19
76746;BME280;65671;49.976;20.038;2024-01-15T02:33:52;95919.59;;;1.02;95.92
76746;BME280;65671;49.976;20.038;2024-01-15T02:36:18;95920.34;;;1.02;96.17
76746;BME280;65671;49.976;20.038;2024-01-15T02:38:43;95911.22;;;1.00;96.96
76746;BME280;65671;49.976;20.038;2024-01-15T02:41:09;95902.44;;;0.96;96.71
76746;BME280;65671;49.976;20.038;2024-01-15T02:43:34;95894.84;;;1.05;96.17
76746;BME280;65671;49.976;20.038;2024-01-15T02:46:00;95892.53;;;1.03;95.58
76746;BME280;65671;49.976;20.038;2024-01-15T02:48:25;95892.19;;;1.12;96.24
76746;BME280;65671;49.976;20.038;2024-01-15T02:50:51;95889.13;;;1.06;94.97
76746;BME280;65671;49.976;20.038;2024-01-15T02:53:16;95893.31;;;1.11;93.58
76746;BME280;65671;49.976;20.038;2024-01-15T02:55:42;95879.25;;;1.00;95.17
76746;BME280;65671;49.976;20.038;2024-01-15T02:58:07;95874.28;;;0.91;95.89
76746;BME280;65671;49.976;20.038;2024-01-15T03:00:33;95881.13;;;0.92;94.29
76746;BME280;65671;49.976;20.038;2024-01-15T03:02:58;95872.75;;;0.87;94.89
76746;BME280;65671;49.976;20.038;2024-01-15T03:05:24;95873.53;;;0.94;94.30
76746;BME280;65671;49.976;20.038;2024-01-15T03:07:49;95867.03;;;0.92;93.54
76746;BME280;65671;49.976;20.038;2024-01-15T03:10:14;95871.63;;;0.98;95.17
76746;BME280;65671;49.976;20.038;2024-01-15T03:12:40;95871.22;;;0.89;95.29
76746;BME280;65671;49.976;20.038;2024-01-15T03:15:05;95875.78;;;0.89;95.78
76746;BME280;65671;49.976;20.038;2024-01-15T03:17:31;95865.94;;;1.00;94.23
76746;BME280;65671;49.976;20.038;2024-01-15T03:19:56;95864.78;;;0.97;94.25
76746;BME280;65671;49.976;20.038;2024-01-15T03:22:22;95852.22;;;0.94;96.20
76746;BME280;65671;49.976;20.038;2024-01-15T03:24:48;95852.59;;;0.93;94.51
76746;BME280;65671;49.976;20.038;2024-01-15T03:27:13;95866.69;;;0.97;94.14
76746;BME280;65671;49.976;20.038;2024-01-15T03:29:39;95852.97;;;0.95;94.78
76746;BME280;65671;49.976;20.038;2024-01-15T03:32:05;95854.50;;;0.92;95.79
76746;BME280;65671;49.976;20.038;2024-01-15T03:34:31;95874.28;;;0.95;93.49
76746;BME280;65671;49.976;20.038;2024-01-15T03:36:57;95862.88;;;0.91;95.18
76746;BME280;65671;49.976;20.038;2024-01-15T03:39:22;95861.34;;;0.86;94.48
76746;BME280;65671;49.976;20.038;2024-01-15T03:44:23;95852.97;;;0.88;94.21
76746;BME280;65671;49.976;20.038;2024-01-15T03:46:48;95846.88;;;0.87;95.17
76746;BME280;65671;49.976;20.038;2024-01-15T03:49:14;95832.81;;;0.94;95.37
76746;BME280;65671;49.976;20.038;2024-01-15T03:51:39;95827.47;;;0.83;94.41
76746;BME280;65671;49.976;20.038;2024-01-15T03:54:05;95824.03;;;0.72;94.42
76746;BME280;65671;49.976;20.038;2024-01-15T03:56:30;95817.97;;;0.79;96.25
76746;BME280;65671;49.976;20.038;2024-01-15T03:58:55;95822.91;;;0.77;94.68
76746;BME280;65671;49.976;20.038;2024-01-15T04:01:21;95811.50;;;0.76;96.09
76746;BME280;65671;49.976;20.038;2024-01-15T04:03:46;95810.34;;;0.77;94.96
76746;BME280;65671;49.976;20.038;2024-01-15T04:06:11;95819.09;;;0.78;95.03
76746;BME280;65671;49.976;20.038;2024-01-15T04:08:37;95817.97;;;0.79;95.17
76746;BME280;65671;49.976;20.038;2024-01-15T04:11:02;95820.25;;;0.87;95.00
76746;BME280;65671;49.976;20.038;2024-01-15T04:13:28;95814.13;;;0.80;94.82
76746;BME280;65671;49.976;20.038;2024-01-15T04:15:53;95809.97;;;0.79;93.74
76746;BME280;65671;49.976;20.038;2024-01-15T04:18:18;95806.16;;;0.87;93.76
76746;BME280;65671;49.976;20.038;2024-01-15T04:20:44;95801.97;;;0.86;93.20
76746;BME280;65671;49.976;20.038;2024-01-15T04:23:10;95804.25;;;0.80;93.79
76746;BME280;65671;49.976;20.038;2024-01-15T04:25:35;95792.84;;;0.83;93.35
76746;BME280;65671;49.976;20.038;2024-01-15T04:28:00;95785.22;;;0.75;92.25
76746;BME280;65671;49.976;20.038;2024-01-15T04:30:26;95789.78;;;0.78;92.96
76746;BME280;65671;49.976;20.038;2024-01-15T04:32:51;95784.88;;;0.76;93.08
76746;BME280;65671;49.976;20.038;2024-01-15T04:35:17;95789.78;;;0.78;92.80
76746;BME280;65671;49.976;20.038;2024-01-15T04:37:42;95789.41;;;0.69;93.60
76746;BME280;65671;49.976;20.038;2024-01-15T04:40:08;95790.56;;;0.71;93.90
76746;BME280;65671;49.976;20.038;2024-01-15T04:42:33;95779.91;;;0.71;94.59
76746;BME280;65671;49.976;20.038;2024-01-15T04:44:59;95782.19;;;0.73;93.07
76746;BME280;65671;49.976;20.038;2024-01-15T04:47:24;95780.66;;;0.75;92.95
76746;BME280;65671;49.976;20.038;2024-01-15T04:49:50;95783.72;;;0.77;94.35
76746;BME280;65671;49.976;20.038;2024-01-15T04:52:16;95783.72;;;0.74;93.93
76746;BME280;65671;49.976;20.038;2024-01-15T04:54:41;95784.84;;;0.80;93.83
76746;BME280;65671;49.976;20.038;2024-01-15T04:57:06;95793.63;;;0.77;93.49
76746;BME280;65671;49.976;20.038;2024-01-15T04:59:32;95781.44;;;0.76;95.23
76746;BME280;65671;49.976;20.038;2024-01-15T05:01:57;95778.00;;;0.82;92.10
76746;BME280;65671;49.976;20.038;2024-01-15T05:04:22;95777.63;;;0.87;94.08
76746;BME280;65671;49.976;20.038;2024-01-15T05:06:50;95774.97;;;0.84;94.88
76746;BME280;65671;49.976;20.038;2024-01-15T05:09:15;95770.38;;;0.81;95.38
76746;BME280;65671;49.976;20.038;2024-01-15T05:11:40;95782.19;;;0.83;94.26
76746;BME280;65671;49.976;20.038;2024-01-15T05:14:06;95776.84;;;0.87;92.20
76746;BME280;65671;49.976;20.038;2024-01-15T05:16:31;95773.44;;;0.79;94.13
76746;BME280;65671;49.976;20.038;2024-01-15T05:18:56;95774.59;;;0.85;93.65
76746;BME280;65671;49.976;20.038;2024-01-15T05:21:22;95775.72;;;0.81;94.63
76746;BME280;65671;49.976;20.038;2024-01-15T05:23:47;95774.97;;;0.73;94.70
76746;BME280;65671;49.976;20.038;2024-01-15T05:26:13;95777.25;;;0.78;94.59
76746;BME280;65671;49.976;20.038;2024-01-15T05:28:41;95763.91;;;0.71;94.32
76746;BME280;65671;49.976;20.038;2024-01-15T05:31:06;95762.41;;;0.77;95.08
76746;BME280;65671;49.976;20.038;2024-01-15T05:33:32;95772.31;;;0.77;95.38
76746;BME280;65671;49.976;20.038;2024-01-15T05:35:57;95770.75;;;0.86;94.74
76746;BME280;65671;49.976;20.038;2024-01-15T05:38:24;95771.53;;;0.87;94.37
76746;BME280;65671;49.976;20.038;2024-01-15T05:40:49;95770.75;;;0.83;94.62
76746;BME280;65671;49.976;20.038;2024-01-15T05:43:14;95766.56;;;0.92;94.61
76746;BME280;65671;49.976;20.038;2024-01-15T05:45:43;95777.63;;;0.94;94.23
76746;BME280;65671;49.976;20.038;2024-01-15T05:48:09;95766.94;;;0.98;93.17
76746;BME280;65671;49.976;20.038;2024-01-15T05:50:35;95768.09;;;0.97;94.07
76746;BME280;65671;49.976;20.038;2024-01-15T05:53:00;95756.28;;;1.01;94.15
76746;BME280;65671;49.976;20.038;2024-01-15T05:55:25;95749.06;;;1.02;93.26
76746;BME280;65671;49.976;20.038;2024-01-15T05:57:51;95747.16;;;0.99;93.63
76746;BME280;65671;49.976;20.038;2024-01-15T06:00:16;95741.81;;;0.95;94.46
76746;BME280;65671;49.976;20.038;2024-01-15T06:02:41;95737.63;;;0.98;94.91
76746;BME280;65671;49.976;20.038;2024-01-15T06:05:07;95739.94;;;0.96;96.22
76746;BME280;65671;49.976;20.038;2024-01-15T06:07:35;95736.50;;;0.95;95.03
76746;BME280;65671;49.976;20.038;2024-01-15T06:10:01;95751.72;;;0.98;95.14
76746;BME280;65671;49.976;20.038;2024-01-15T06:12:27;95752.84;;;1.01;94.92
76746;BME280;65671;49.976;20.038;2024-01-15T06:14:53;95758.94;;;1.01;96.21
76746;BME280;65671;49.976;20.038;2024-01-15T06:17:18;95764.69;;;1.00;95.72
76746;BME280;65671;49.976;20.038;2024-01-15T06:19:44;95749.81;;;1.06;94.71
76746;BME280;65671;49.976;20.038;2024-01-15T06:22:09;95753.25;;;1.03;96.39
76746;BME280;65671;49.976;20.038;2024-01-15T06:24:34;95751.72;;;1.05;95.59
76746;BME280;65671;49.976;20.038;2024-01-15T06:27:00;95752.47;;;1.06;96.56
76746;BME280;65671;49.976;20.038;2024-01-15T06:29:26;95757.41;;;1.07;95.80
76746;BME280;65671;49.976;20.038;2024-01-15T06:31:52;95764.66;;;1.07;95.27
76746;BME280;65671;49.976;20.038;2024-01-15T06:34:17;95760.84;;;1.08;95.46
76746;BME280;65671;49.976;20.038;2024-01-15T06:36:43;95753.22;;;1.13;95.34
76746;BME280;65671;49.976;20.038;2024-01-15T06:39:09;95763.88;;;1.06;96.09
76746;BME280;65671;49.976;20.038;2024-01-15T06:41:35;95758.19;;;1.08;95.89
76746;BME280;65671;49.976;20.038;2024-01-15T06:44:06;95755.50;;;1.08;95.67
76746;BME280;65671;49.976;20.038;2024-01-15T06:46:32;95758.56;;;1.10;95.58
76746;BME280;65671;49.976;20.038;2024-01-15T06:48:57;95745.63;;;1.08;95.90
76746;BME280;65671;49.976;20.038;2024-01-15T06:51:22;95746.78;;;0.97;96.88
76746;BME280;65671;49.976;20.038;2024-01-15T06:53:48;95749.41;;;1.07;94.68
76746;BME280;65671;49.976;20.038;2024-01-15T06:56:13;95749.03;;;1.12;100.00
76746;BME280;65671;49.976;20.038;2024-01-15T06:58:39;95747.88;;;1.21;97.81
76746;BME280;65671;49.976;20.038;2024-01-15T07:01:04;95747.88;;;1.10;95.59
76746;BME280;65671;49.976;20.038;2024-01-15T07:03:30;95763.16;;;1.06;95.92
76746;BME280;65671;49.976;20.038;2024-01-15T07:05:56;95748.69;;;1.00;97.46
76746;BME280;65671;49.976;20.038;2024-01-15T07:08:22;95757.41;;;1.11;95.88
76746;BME280;65671;49.976;20.038;2024-01-15T07:10:47;95757.78;;;1.13;95.79
76746;BME280;65671;49.976;20.038;2024-01-15T07:13:12;95769.22;;;1.17;94.16
76746;BME280;65671;49.976;20.038;2024-01-15T07:15:38;95772.59;;;1.21;95.85
76746;BME280;65671;49.976;20.038;2024-01-15T07:18:04;95772.63;;;1.18;95.76
76746;BME280;65671;49.976;20.038;2024-01-15T07:20:29;95770.72;;;1.22;94.15
76746;BME280;65671;49.976;20.038;2024-01-15T07:22:55;95776.44;;;1.17;96.12
76746;BME280;65671;49.976;20.038;2024-01-15T07:25:20;95781.38;;;1.25;96.29
76746;BME280;65671;49.976;20.038;2024-01-15T07:27:46;95782.91;;;1.19;95.34
76746;BME280;65671;49.976;20.038;2024-01-15T07:30:12;95780.63;;;1.14;95.60
76746;BME280;65671;49.976;20.038;2024-01-15T07:32:38;95780.63;;;1.18;95.71
76746;BME280;65671;49.976;20.038;2024-01-15T07:35:04;95772.25;;;1.26;94.36
76746;BME280;65671;49.976;20.038;2024-01-15T07:37:31;95791.97;;;1.43;95.23
76746;BME280;65671;49.976;20.038;2024-01-15T07:39:56;95781.38;;;1.22;95.32
76746;BME280;65671;49.976;20.038;2024-01-15T07:42:22;95790.91;;;1.19;95.31
76746;BME280;65671;49.976;20.038;2024-01-15T07:44:47;95791.25;;;1.25;94.63
76746;BME280;65671;49.976;20.038;2024-01-15T07:47:13;95795.06;;;1.27;94.70
76746;BME280;65671;49.976;20.038;2024-01-15T07:49:38;95809.53;;;1.33;95.26
76746;BME280;65671;49.976;20.038;2024-01-15T07:52:04;95806.84;;;1.40;94.27
76746;BME280;65671;49.976;20.038;2024-01-15T07:54:31;95807.22;;;1.42;94.50
76746;BME280;65671;49.976;20.038;2024-01-15T07:57:00;95800.75;;;1.43;93.42
76746;BME280;65671;49.976;20.038;2024-01-15T07:59:26;95809.16;;;1.38;93.86
76746;BME280;65671;49.976;20.038;2024-01-15T08:01:52;95808.38;;;1.41;94.27
76746;BME280;65671;49.976;20.038;2024-01-15T08:04:18;95806.47;;;1.38;94.06
76746;BME280;65671;49.976;20.038;2024-01-15T08:06:44;95810.28;;;1.44;93.86
76746;BME280;65671;49.976;20.038;2024-01-15T08:09:10;95809.88;;;1.49;94.63
76746;BME280;65671;49.976;20.038;2024-01-15T08:11:35;95807.97;;;1.46;95.53
76746;BME280;65671;49.976;20.038;2024-01-15T08:14:01;95809.13;;;1.45;94.02
76746;BME280;65671;49.976;20.038;2024-01-15T08:16:26;95814.13;;;1.33;96.58
76746;BME280;65671;49.976;20.038;2024-01-15T08:18:53;95809.88;;;1.42;95.05
76746;BME280;65671;49.976;20.038;2024-01-15T08:21:19;95811.06;;;1.41;94.98
76746;BME280;65671;49.976;20.038;2024-01-15T08:23:44;95817.88;;;1.53;95.73
76746;BME280;65671;49.976;20.038;2024-01-15T08:26:10;95819.41;;;1.50;96.34
76746;BME280;65671;49.976;20.038;2024-01-15T08:28:35;95825.47;;;1.58;97.18
76746;BME280;65671;49.976;20.038;2024-01-15T08:31:01;95825.88;;;1.46;100.00
76746;BME280;65671;49.976;20.038;2024-01-15T08:33:26;95834.69;;;1.36;100.00
76746;BME280;65671;49.976;20.038;2024-01-15T08:35:52;95835.41;;;1.36;100.00
76746;BME280;65671;49.976;20.038;2024-01-15T08:38:18;95833.53;;;1.19;100.00
76746;BME280;65671;49.976;20.038;2024-01-15T08:40:44;95831.28;;;1.14;100.00
76746;BME280;65671;49.976;20.038;2024-01-15T08:43:09;95831.28;;;1.14;100.00
76746;BME280;65671;49.976;20.038;2024-01-15T08:45:35;95831.63;;;1.20;100.00
76746;BME280;65671;49.976;20.038;2024-01-15T08:48:00;95828.56;;;1.35;100.00
76746;BME280;65671;49.976;20.038;2024-01-15T08:50:26;95825.13;;;1.42;100.00
76746;BME280;65671;49.976;20.038;2024-01-15T08:52:51;95825.88;;;1.46;100.00
76746;BME280;65671;49.976;20.038;2024-01-15T08:55:17;95827.75;;;1.59;100.00
76746;BME280;65671;49.976;20.038;2024-01-15T08:57:42;95832.34;;;1.59;100.00
76746;BME280;65671;49.976;20.038;2024-01-15T09:00:08;95834.22;;;1.62;100.00
76746;BME280;65671;49.976;20.038;2024-01-15T09:02:34;95832.34;;;1.55;100.00
76746;BME280;65671;49.976;20.038;2024-01-15T09:05:01;95830.41;;;1.70;99.64
76746;BME280;65671;49.976;20.038;2024-01-15T09:07:26;95823.88;;;1.78;99.72
76746;BME280;65671;49.976;20.038;2024-01-15T09:09:52;95833.06;;;1.70;97.97
76746;BME280;65671;49.976;20.038;2024-01-15T09:12:18;95833.78;;;1.78;96.46
76746;BME280;65671;49.976;20.038;2024-01-15T09:14:46;95842.56;;;1.82;96.09
76746;BME280;65671;49.976;20.038;2024-01-15T09:17:12;95827.25;;;1.93;97.18
76746;BME280;65671;49.976;20.038;2024-01-15T09:19:37;95832.63;;;1.86;96.08
76746;BME280;65671;49.976;20.038;2024-01-15T09:22:05;95844.38;;;1.95;95.61
76746;BME280;65671;49.976;20.038;2024-01-15T09:24:30;95840.56;;;2.00;94.45
76746;BME280;65671;49.976;20.038;2024-01-15T09:26:56;95838.19;;;2.16;96.03
76746;BME280;65671;49.976;20.038;2024-01-15T09:29:21;95837.56;;;1.87;95.69
76746;BME280;65671;49.976;20.038;2024-01-15T09:31:49;95835.22;;;2.03;92.97
76746;BME280;65671;49.976;20.038;2024-01-15T09:34:15;95841.38;;;1.86;94.62
76746;BME280;65671;49.976;20.038;2024-01-15T09:36:40;95845.59;;;1.80;96.86
76746;BME280;65671;49.976;20.038;2024-01-15T09:39:08;95841.88;;;1.56;100.00
76746;BME280;65671;49.976;20.038;2024-01-15T09:41:35;95851.41;;;1.43;100.00
76746;BME280;65671;49.976;20.038;2024-01-15T09:44:02;95850.63;;;1.50;100.00
76746;BME280;65671;49.976;20.038;2024-01-15T09:46:28;95840.75;;;1.43;100.00
76746;BME280;65671;49.976;20.038;2024-01-15T09:48:53;95847.16;;;1.63;100.00
76746;BME280;65671;49.976;20.038;2024-01-15T09:51:19;95840.31;;;1.62;100.00
76746;BME280;65671;49.976;20.038;2024-01-15T09:53:45;95840.31;;;1.62;100.00
76746;BME280;65671;49.976;20.038;2024-01-15T09:56:11;95846.81;;;1.61;100.00
76746;BME280;65671;49.976;20.038;2024-01-15T09:58:37;95851.41;;;1.43;100.00
76746;BME280;65671;49.976;20.038;2024-01-15T10:01:04;95848.00;;;1.32;100.00
76746;BME280;65671;49.976;20.038;2024-01-15T10:03:29;95856.78;;;1.01;100.00
76746;BME280;65671;49.976;20.038;2024-01-15T10:05:56;95854.09;;;1.01;100.00
76746;BME280;65671;49.976;20.038;2024-01-15T10:08:23;95850.28;;;1.12;100.00
76746;BME280;65671;49.976;20.038;2024-01-15T10:10:50;95843.47;;;1.11;100.00
76746;BME280;65671;49.976;20.038;2024-01-15T10:13:15;95844.56;;;1.28;100.00
76746;BME280;65671;49.976;20.038;2024-01-15T10:15:40;95843.00;;;1.48;100.00
76746;BME280;65671;49.976;20.038;2024-01-15T10:18:08;95840.34;;;1.52;100.00
76746;BME280;65671;49.976;20.038;2024-01-15T10:20:33;95848.75;;;1.43;100.00
76746;BME280;65671;49.976;20.038;2024-01-15T10:22:59;95838.44;;;1.45;100.00
76746;BME280;65671;49.976;20.038;2024-01-15T10:25:24;95840.78;;;1.33;100.00
76746;BME280;65671;49.976;20.038;2024-01-15T10:28:01;95840.00;;;1.36;100.00
76746;BME280;65671;49.976;20.038;2024-01-15T10:30:27;95840.75;;;1.36;100.00
76746;BME280;65671;49.976;20.038;2024-01-15T10:32:59;95836.94;;;1.30;100.00
76746;BME280;65671;49.976;20.038;2024-01-15T10:35:33;95828.94;;;1.41;100.00
76746;BME280;65671;49.976;20.038;2024-01-15T10:38:00;95830.81;;;1.54;100.00
76746;BME280;65671;49.976;20.038;2024-01-15T10:40:25;95833.50;;;1.37;100.00
76746;BME280;65671;49.976;20.038;2024-01-15T10:42:51;95833.09;;;1.56;100.00
76746;BME280;65671;49.976;20.038;2024-01-15T10:45:17;95826.25;;;1.48;100.00
76746;BME280;65671;49.976;20.038;2024-01-15T10:47:43;95832.69;;;1.61;100.00
76746;BME280;65671;49.976;20.038;2024-01-15T10:50:09;95826.13;;;1.83;100.00
76746;BME280;65671;49.976;20.038;2024-01-15T10:52:39;95823.47;;;1.83;100.00
76746;BME280;65671;49.976;20.038;2024-01-15T10:55:07;95824.91;;;2.05;99.54
76746;BME280;65671;49.976;20.038;2024-01-15T10:57:34;95820.78;;;1.90;99.58
76746;BME280;65671;49.976;20.038;2024-01-15T11:00:00;95828.03;;;1.93;98.75
76746;BME280;65671;49.976;20.038;2024-01-15T11:02:29;95828.03;;;1.90;99.82
76746;BME280;65671;49.976;20.038;2024-01-15T11:04:55;95824.16;;;2.05;99.24
76746;BME280;65671;49.976;20.038;2024-01-15T11:07:22;95819.09;;;2.24;97.06
76746;BME280;65671;49.976;20.038;2024-01-15T11:09:50;95810.78;;;2.08;96.15
76746;BME280;65671;49.976;20.038;2024-01-15T11:12:16;95816.91;;;2.02;95.12
76746;BME280;65671;49.976;20.038;2024-01-15T11:14:47;95818.47;;;1.96;96.16
76746;BME280;65671;49.976;20.038;2024-01-15T11:17:14;95822.25;;;2.02;93.45
76746;BME280;65671;49.976;20.038;2024-01-15T11:19:47;95811.22;;;2.00;92.05
76746;BME280;65671;49.976;20.038;2024-01-15T11:25:01;95806.66;;;1.97;92.00
76746;BME280;65671;49.976;20.038;2024-01-15T11:27:44;95811.25;;;1.93;91.96
76746;BME280;65671;49.976;20.038;2024-01-15T11:30:11;95817.69;;;2.06;89.05
76746;BME280;65671;49.976;20.038;2024-01-15T11:32:37;95820.03;;;1.90;88.98
76746;BME280;65671;49.976;20.038;2024-01-15T11:35:03;95816.28;;;1.73;86.07
76746;BME280;65671;49.976;20.038;2024-01-15T11:40:21;95808.75;;;1.40;87.09
76746;BME280;65671;49.976;20.038;2024-01-15T11:42:49;95807.25;;;1.25;84.84
76746;BME280;65671;49.976;20.038;2024-01-15T11:45:21;95812.59;;;1.28;84.48
76746;BME280;65671;49.976;20.038;2024-01-15T11:48:22;95792.81;;;1.15;89.11
76746;BME280;65671;49.976;20.038;2024-01-15T11:50:55;95817.91;;;1.25;85.34
76746;BME280;65671;49.976;20.038;2024-01-15T11:53:47;95794.31;;;1.16;84.90
76746;BME280;65671;49.976;20.038;2024-01-15T11:56:17;95814.13;;;1.26;84.23
76746;BME280;65671;49.976;20.038;2024-01-15T11:58:43;95810.69;;;1.22;90.13
76746;BME280;65671;49.976;20.038;2024-01-15T12:01:10;95825.41;;;1.72;84.38
76746;BME280;65671;49.976;20.038;2024-01-15T12:03:35;95820.13;;;1.61;86.33
76746;BME280;65671;49.976;20.038;2024-01-15T12:06:01;95819.41;;;1.40;87.19
76746;BME280;65671;49.976;20.038;2024-01-15T12:08:26;95809.50;;;1.47;86.83
76746;BME280;65671;49.976;20.038;2024-01-15T12:10:52;95819.78;;;1.45;85.02
76746;BME280;65671;49.976;20.038;2024-01-15T12:13:18;95809.50;;;1.47;82.61
76746;BME280;65671;49.976;20.038;2024-01-15T12:15:44;95819.41;;;1.40;81.97
76746;BME280;65671;49.976;20.038;2024-01-15T12:18:13;95812.19;;;1.40;81.93
76746;BME280;65671;49.976;20.038;2024-01-15T12:20:39;95819.41;;;1.43;85.24
76746;BME280;65671;49.976;20.038;2024-01-15T12:23:05;95808.75;;;1.40;85.25
76746;BME280;65671;49.976;20.038;2024-01-15T12:25:31;95808.75;;;1.43;83.42
76746;BME280;65671;49.976;20.038;2024-01-15T12:27:57;95792.38;;;1.34;83.22
76746;BME280;65671;49.976;20.038;2024-01-15T12:30:22;95792.75;;;1.40;84.27
76746;BME280;65671;49.976;20.038;2024-01-15T12:32:48;95795.00;;;1.52;83.44
76746;BME280;65671;49.976;20.038;2024-01-15T12:35:14;95795.81;;;1.38;84.90
76746;BME280;65671;49.976;20.038;2024-01-15T12:37:41;95811.41;;;1.36;82.19
76746;BME280;65671;49.976;20.038;2024-01-15T12:40:08;95810.28;;;1.30;84.09
76746;BME280;65671;49.976;20.038;2024-01-15T12:42:35;95808.75;;;1.36;81.95
76746;BME280;65671;49.976;20.038;2024-01-15T12:45:02;95809.91;;;1.39;82.61
76746;BME280;65671;49.976;20.038;2024-01-15T12:47:28;95817.91;;;1.28;84.36
76746;BME280;65671;49.976;20.038;2024-01-15T12:49:53;95817.50;;;1.37;81.12
76746;BME280;65671;49.976;20.038;2024-01-15T12:52:19;95825.53;;;1.26;81.82
76746;BME280;65671;49.976;20.038;2024-01-15T12:54:51;95821.31;;;1.43;81.21
76746;BME280;65671;49.976;20.038;2024-01-15T12:57:17;95815.22;;;1.46;80.10
76746;BME280;65671;49.976;20.038;2024-01-15T12:59:43;95824.34;;;1.55;80.73